createdAt,value
2023-02-26T00:01:22.935Z,100639.25
2023-02-26T00:03:53.655Z,100641.56
2023-02-26T00:06:20.874Z,100652.13
2023-02-26T00:08:47.317Z,100654.97
2023-02-26T00:11:14.337Z,100659.75
2023-02-26T00:13:43.032Z,100652.75
2023-02-26T00:16:17.809Z,100654.66
2023-02-26T00:18:44.680Z,100650.88
2023-02-26T00:21:17.497Z,100661.38
2023-02-26T00:23:44.068Z,100656.41
2023-02-26T00:26:10.526Z,100660.72
2023-02-26T00:28:37.523Z,100667.16
2023-02-26T00:31:05.037Z,100665.38
2023-02-26T00:33:31.964Z,100673.91
2023-02-26T00:36:15.635Z,100676.09
2023-02-26T00:38:48.277Z,100675.69
2023-02-26T00:41:15.716Z,100681.50
2023-02-26T00:43:42.527Z,100685.94
2023-02-26T00:46:34.153Z,100686.41
2023-02-26T00:49:25.650Z,100688.00
2023-02-26T00:51:56.642Z,100692.53
2023-02-26T00:54:28.648Z,100686.09
2023-02-26T00:56:57.354Z,100685.56
2023-02-26T00:59:24.654Z,100688.44
2023-02-26T01:01:52.650Z,100690.00
2023-02-26T01:04:22.129Z,100690.13
2023-02-26T01:06:57.792Z,100684.94
2023-02-26T01:09:27.278Z,100692.66
2023-02-26T01:11:55.660Z,100699.53
2023-02-26T01:14:23.161Z,100697.31
2023-02-26T01:17:08.360Z,100696.44
2023-02-26T01:19:51.754Z,100701.69
2023-02-26T01:22:30.479Z,100702.88
2023-02-26T01:25:03.509Z,100705.09
2023-02-26T01:27:30.414Z,100701.47
2023-02-26T01:29:57.122Z,100712.81
2023-02-26T01:32:46.343Z,100704.72
2023-02-26T01:35:28.084Z,100704.72
2023-02-26T01:38:14.338Z,100713.63
2023-02-26T01:40:59.718Z,100720.22
2023-02-26T01:43:44.332Z,100716.44
2023-02-26T01:46:21.873Z,100720.66
2023-02-26T01:48:54.424Z,100720.56
2023-02-26T01:51:54.100Z,100728.72
2023-02-26T01:54:25.217Z,100732.88
2023-02-26T01:57:01.101Z,100719.53
2023-02-26T01:59:27.649Z,100722.50
2023-02-26T02:01:57.101Z,100730.72
2023-02-26T02:04:24.680Z,100731.03
2023-02-26T02:06:51.635Z,100737.59
2023-02-26T02:09:18.115Z,100734.94
2023-02-26T02:12:09.996Z,100737.69
2023-02-26T02:15:04.029Z,100736.56
2023-02-26T02:17:40.065Z,100732.41
2023-02-26T02:20:27.668Z,100738.50
2023-02-26T02:23:09.382Z,100739.53
2023-02-26T02:25:57.549Z,100736.78
2023-02-26T02:28:29.706Z,100730.22
2023-02-26T02:31:02.325Z,100726.81
2023-02-26T02:33:40.296Z,100726.28
2023-02-26T02:36:14.901Z,100722.97
2023-02-26T02:38:54.213Z,100719.69
2023-02-26T02:41:34.140Z,100730.63
2023-02-26T02:44:04.165Z,100732.91
2023-02-26T02:46:34.636Z,100737.59
2023-02-26T02:49:16.000Z,100734.13
2023-02-26T02:51:50.815Z,100733.06
2023-02-26T02:54:42.173Z,100739.53
2023-02-26T02:57:19.754Z,100748.56
2023-02-26T02:59:51.339Z,100748.56
2023-02-26T03:02:25.412Z,100740.88
2023-02-26T03:04:52.346Z,100744.00
2023-02-26T03:07:18.812Z,100732.84
2023-02-26T03:09:45.621Z,100748.06
2023-02-26T03:12:12.700Z,100757.16
2023-02-26T03:14:40.160Z,100768.44
2023-02-26T03:17:32.243Z,100767.97
2023-02-26T03:20:25.046Z,100784.78
2023-02-26T03:23:08.060Z,100791.31
2023-02-26T03:25:52.438Z,100795.75
2023-02-26T03:28:22.062Z,100789.34
2023-02-26T03:30:57.248Z,100794.81
2023-02-26T03:33:46.809Z,100802.19
2023-02-26T03:36:27.030Z,100796.19
2023-02-26T03:39:26.882Z,100797.31
2023-02-26T03:42:05.265Z,100810.53
2023-02-26T03:45:14.670Z,100805.69
2023-02-26T03:47:46.083Z,100810.97
2023-02-26T03:50:25.694Z,100810.72
2023-02-26T03:52:54.266Z,100814.94
2023-02-26T03:55:31.626Z,100825.38
2023-02-26T03:57:58.395Z,100829.78
2023-02-26T04:00:27.328Z,100835.03
2023-02-26T04:03:01.317Z,100839.69
2023-02-26T04:05:33.819Z,100840.97
2023-02-26T04:08:01.107Z,100850.56
2023-02-26T04:10:36.463Z,100844.97
2023-02-26T04:13:03.950Z,100839.09
2023-02-26T04:15:30.483Z,100858.53
2023-02-26T04:17:57.078Z,100848.94
2023-02-26T04:20:23.745Z,100858.94
2023-02-26T04:22:50.315Z,100860.00
2023-02-26T04:25:16.773Z,100857.63
2023-02-26T04:27:43.173Z,100857.31
2023-02-26T04:30:10.291Z,100852.44
2023-02-26T04:32:36.784Z,100859.31
2023-02-26T04:35:03.777Z,100862.84
2023-02-26T04:37:30.314Z,100857.63
2023-02-26T04:39:56.749Z,100867.25
2023-02-26T04:42:23.178Z,100867.91
2023-02-26T04:44:49.640Z,100881.28
2023-02-26T04:47:16.218Z,100875.00
2023-02-26T04:49:42.625Z,100875.00
2023-02-26T04:52:09.094Z,100881.34
2023-02-26T04:54:35.552Z,100870.94
2023-02-26T04:57:02.011Z,100876.22
2023-02-26T04:59:28.772Z,100872.19
2023-02-26T05:01:55.277Z,100876.00
2023-02-26T05:04:21.827Z,100874.13
2023-02-26T05:06:48.309Z,100877.78
2023-02-26T05:09:14.867Z,100877.88
2023-02-26T05:11:41.229Z,100888.53
2023-02-26T05:14:07.729Z,100890.16
2023-02-26T05:16:34.307Z,100888.53
2023-02-26T05:19:00.714Z,100890.97
2023-02-26T05:21:27.124Z,100903.50
2023-02-26T05:23:53.801Z,100904.69
2023-02-26T05:26:20.209Z,100912.94
2023-02-26T05:28:46.687Z,100925.56
2023-02-26T05:31:13.818Z,100928.38
2023-02-26T05:33:40.532Z,100941.44
2023-02-26T05:36:07.343Z,100930.53
2023-02-26T05:38:34.284Z,100938.44
2023-02-26T05:41:01.419Z,100942.81
2023-02-26T05:43:28.266Z,100949.06
2023-02-26T05:45:55.519Z,100954.31
2023-02-26T05:48:22.130Z,100944.72
2023-02-26T05:50:49.678Z,100958.41
2023-02-26T05:53:16.205Z,100954.09
2023-02-26T05:55:42.672Z,100959.50
2023-02-26T05:58:09.153Z,100962.84
2023-02-26T06:00:35.993Z,100959.56
2023-02-26T06:03:02.692Z,100968.72
2023-02-26T06:05:29.154Z,100959.69
2023-02-26T06:07:55.532Z,100968.22
2023-02-26T06:10:22.006Z,100968.09
2023-02-26T06:12:48.497Z,100988.03
2023-02-26T06:15:14.950Z,100996.19
2023-02-26T06:17:41.384Z,100999.78
2023-02-26T06:20:08.566Z,100999.47
2023-02-26T06:22:35.028Z,101003.91
2023-02-26T06:25:01.427Z,100995.47
2023-02-26T06:27:27.871Z,101005.84
2023-02-26T06:29:54.372Z,101005.34
2023-02-26T06:32:20.875Z,101015.50
2023-02-26T06:34:47.408Z,101029.44
2023-02-26T06:37:13.833Z,101024.84
2023-02-26T06:39:40.200Z,101042.31
2023-02-26T06:42:06.633Z,101050.25
2023-02-26T06:44:33.125Z,101053.50
2023-02-26T06:46:59.539Z,101058.69
2023-02-26T06:49:26.166Z,101062.22
2023-02-26T06:51:52.652Z,101066.03
2023-02-26T06:54:19.097Z,101067.94
2023-02-26T06:56:45.718Z,101068.97
2023-02-26T06:59:12.302Z,101084.31
2023-02-26T07:01:39.153Z,101073.91
2023-02-26T07:04:05.577Z,101085.31
2023-02-26T07:06:32.525Z,101087.16
2023-02-26T07:08:59.064Z,101093.13
2023-02-26T07:11:25.770Z,101111.34
2023-02-26T07:13:52.196Z,101108.34
2023-02-26T07:16:18.801Z,101117.81
2023-02-26T07:18:45.323Z,101122.47
2023-02-26T07:21:11.768Z,101126.84
2023-02-26T07:23:38.646Z,101132.06
2023-02-26T07:26:05.209Z,101136.66
2023-02-26T07:28:31.584Z,101133.88
2023-02-26T07:30:58.562Z,101132.66
2023-02-26T07:33:26.659Z,101134.81
2023-02-26T07:35:53.125Z,101139.13
2023-02-26T07:38:19.921Z,101154.53
2023-02-26T07:40:46.903Z,101142.63
2023-02-26T07:43:13.559Z,101145.09
2023-02-26T07:45:39.966Z,101143.72
2023-02-26T07:48:06.450Z,101145.34
2023-02-26T07:50:33.627Z,101148.09
2023-02-26T07:53:00.199Z,101160.09
2023-02-26T07:55:27.671Z,101160.38
2023-02-26T07:57:54.253Z,101160.34
2023-02-26T08:00:21.092Z,101155.31
2023-02-26T08:02:47.812Z,101165.16
2023-02-26T08:05:14.289Z,101162.63
2023-02-26T08:07:40.957Z,101167.22
2023-02-26T08:10:09.240Z,101178.81
2023-02-26T08:12:36.720Z,101179.19
2023-02-26T08:15:05.165Z,101185.75
2023-02-26T08:17:31.784Z,101183.94
2023-02-26T08:19:58.268Z,101195.53
2023-02-26T08:22:24.940Z,101197.75
2023-02-26T08:24:51.356Z,101205.94
2023-02-26T08:27:17.831Z,101192.25
2023-02-26T08:29:46.174Z,101193.53
2023-02-26T08:32:13.389Z,101198.38
2023-02-26T08:34:40.101Z,101183.56
2023-02-26T08:37:09.244Z,101188.75
2023-02-26T08:39:38.309Z,101196.06
2023-02-26T08:42:06.566Z,101182.97
2023-02-26T08:44:33.413Z,101186.72
2023-02-26T08:47:00.103Z,101199.22
2023-02-26T08:49:26.893Z,101188.84
2023-02-26T08:51:53.298Z,101187.72
2023-02-26T08:54:19.885Z,101185.47
2023-02-26T08:56:46.326Z,101186.00
2023-02-26T08:59:13.495Z,101189.88
2023-02-26T09:01:39.960Z,101193.09
2023-02-26T09:04:06.397Z,101203.94
2023-02-26T09:06:33.284Z,101217.66
2023-02-26T09:08:59.643Z,101209.16
2023-02-26T09:11:30.543Z,101211.38
2023-02-26T09:13:58.881Z,101213.25
2023-02-26T09:16:26.776Z,101205.59
2023-02-26T09:18:53.583Z,101230.53
2023-02-26T09:21:19.957Z,101230.13
2023-02-26T09:23:47.194Z,101246.19
2023-02-26T09:26:13.662Z,101233.06
2023-02-26T09:28:40.582Z,101240.47
2023-02-26T09:31:07.403Z,101235.34
2023-02-26T09:33:34.154Z,101234.41
2023-02-26T09:36:00.952Z,101242.28
2023-02-26T09:38:27.437Z,101240.50
2023-02-26T09:41:03.601Z,101243.44
2023-02-26T09:44:20.420Z,101238.88
2023-02-26T09:46:58.883Z,101237.28
2023-02-26T09:49:35.256Z,101231.47
2023-02-26T09:52:23.882Z,101244.41
2023-02-26T09:54:54.337Z,101245.72
2023-02-26T09:57:34.429Z,101256.72
2023-02-26T10:00:02.880Z,101255.22
2023-02-26T10:02:33.861Z,101253.88
2023-02-26T10:05:10.398Z,101255.81
2023-02-26T10:07:51.988Z,101259.88
2023-02-26T10:10:31.269Z,101259.50
2023-02-26T10:13:00.375Z,101265.91
2023-02-26T10:15:32.196Z,101268.22
2023-02-26T10:18:11.517Z,101272.97
2023-02-26T10:20:56.488Z,101269.59
2023-02-26T10:23:54.086Z,101280.00
2023-02-26T10:26:25.246Z,101272.34
2023-02-26T10:29:13.311Z,101285.81
2023-02-26T10:32:02.991Z,101288.50
2023-02-26T10:34:47.411Z,101289.00
2023-02-26T10:37:19.767Z,101287.00
2023-02-26T10:39:51.841Z,101285.81
2023-02-26T10:42:26.259Z,101295.53
2023-02-26T10:45:31.190Z,101288.25
2023-02-26T10:48:03.408Z,101281.94
2023-02-26T10:50:31.282Z,101287.66
2023-02-26T10:52:58.625Z,101274.25
2023-02-26T10:55:50.108Z,101286.63
2023-02-26T10:58:26.787Z,101284.75
2023-02-26T11:00:55.646Z,101293.56
2023-02-26T11:03:35.690Z,101294.25
2023-02-26T11:06:03.843Z,101295.34
2023-02-26T11:08:39.476Z,101297.84
2023-02-26T11:11:06.996Z,101290.66
2023-02-26T11:13:36.419Z,101297.03
2023-02-26T11:16:12.028Z,101296.66
2023-02-26T11:18:49.487Z,101292.16
2023-02-26T11:21:19.459Z,101302.31
2023-02-26T11:23:46.975Z,101308.09
2023-02-26T11:26:19.149Z,101303.28
2023-02-26T11:28:49.076Z,101301.53
2023-02-26T11:31:19.401Z,101313.38
2023-02-26T11:33:53.357Z,101315.09
2023-02-26T11:36:22.682Z,101322.56
2023-02-26T11:38:57.340Z,101308.56
2023-02-26T11:41:26.461Z,101324.38
2023-02-26T11:44:04.859Z,101315.53
2023-02-26T11:46:31.642Z,101305.81
2023-02-26T11:49:01.297Z,101325.41
2023-02-26T11:51:29.628Z,101312.34
2023-02-26T11:54:01.912Z,101329.06
2023-02-26T11:56:31.377Z,101317.75
2023-02-26T11:59:05.678Z,101315.06
2023-02-26T12:01:32.132Z,101317.16
2023-02-26T12:04:02.248Z,101318.16
2023-02-26T12:06:29.653Z,101323.66
2023-02-26T12:08:56.648Z,101324.56
2023-02-26T12:11:37.364Z,101316.25
2023-02-26T12:14:22.954Z,101327.25
2023-02-26T12:17:07.587Z,101318.59
2023-02-26T12:19:37.098Z,101334.69
2023-02-26T12:22:23.330Z,101327.06
2023-02-26T12:25:38.319Z,101326.94
2023-02-26T12:28:36.429Z,101323.06
2023-02-26T12:31:18.092Z,101332.56
2023-02-26T12:34:07.733Z,101326.44
2023-02-26T12:37:00.482Z,101319.31
2023-02-26T12:39:48.706Z,101316.75
2023-02-26T12:42:37.068Z,101329.97
2023-02-26T12:45:25.203Z,101336.22
2023-02-26T12:48:00.578Z,101331.53
2023-02-26T12:51:07.082Z,101334.91
2023-02-26T12:53:57.550Z,101329.09
2023-02-26T12:57:06.220Z,101339.59
2023-02-26T12:59:47.986Z,101347.88
2023-02-26T13:02:33.323Z,101338.59
2023-02-26T13:04:59.648Z,101341.16
2023-02-26T13:07:49.482Z,101341.25
2023-02-26T13:10:32.809Z,101334.19
2023-02-26T13:13:14.475Z,101344.63
2023-02-26T13:16:02.696Z,101348.47
2023-02-26T13:18:53.731Z,101336.84
2023-02-26T13:21:27.514Z,101341.03
2023-02-26T13:24:11.856Z,101341.84
2023-02-26T13:26:38.697Z,101334.56
2023-02-26T13:29:15.308Z,101336.25
2023-02-26T13:31:50.433Z,101335.72
2023-02-26T13:34:42.141Z,101344.81
2023-02-26T13:37:21.918Z,101338.47
2023-02-26T13:40:26.214Z,101343.78
2023-02-26T13:43:30.581Z,101356.84
2023-02-26T13:46:28.022Z,101348.59
2023-02-26T13:49:17.655Z,101350.63
2023-02-26T13:51:46.381Z,101358.69
2023-02-26T13:54:14.193Z,101352.25
2023-02-26T13:56:40.579Z,101351.56
2023-02-26T13:59:13.328Z,101355.03
2023-02-26T14:01:54.792Z,101359.72
2023-02-26T14:04:24.621Z,101363.59
2023-02-26T14:07:15.293Z,101369.94
2023-02-26T14:10:01.074Z,101362.97
2023-02-26T14:12:43.282Z,101352.78
2023-02-26T14:15:12.895Z,101368.50
2023-02-26T14:18:00.964Z,101357.44
2023-02-26T14:20:29.902Z,101365.00
2023-02-26T14:23:11.615Z,101362.25
2023-02-26T14:25:41.732Z,101342.50
2023-02-26T14:28:33.453Z,101355.63
2023-02-26T14:31:05.821Z,101355.09
2023-02-26T14:33:44.838Z,101362.63
2023-02-26T14:36:26.098Z,101358.28
2023-02-26T14:39:04.908Z,101352.50
2023-02-26T14:41:40.350Z,101362.13
2023-02-26T14:44:21.959Z,101352.59
2023-02-26T14:46:51.277Z,101359.81
2023-02-26T14:49:29.888Z,101354.09
2023-02-26T14:52:10.195Z,101355.66
2023-02-26T14:55:20.707Z,101353.97
2023-02-26T14:57:59.354Z,101359.94
2023-02-26T15:00:39.177Z,101353.66
2023-02-26T15:03:35.039Z,101359.53
2023-02-26T15:06:16.751Z,101355.66
2023-02-26T15:08:46.077Z,101357.91
2023-02-26T15:11:29.844Z,101348.66
2023-02-26T15:14:15.534Z,101352.50
2023-02-26T15:17:00.308Z,101355.81
2023-02-26T15:19:54.384Z,101343.38
2023-02-26T15:22:38.685Z,101352.69
2023-02-26T15:25:13.321Z,101349.28
2023-02-26T15:27:39.715Z,101356.13
2023-02-26T15:30:07.264Z,101352.34
2023-02-26T15:32:37.862Z,101356.66
2023-02-26T15:35:15.615Z,101358.69
2023-02-26T15:37:42.268Z,101358.78
2023-02-26T15:40:09.618Z,101360.84
2023-02-26T15:42:39.490Z,101356.81
2023-02-26T15:45:14.352Z,101363.75
2023-02-26T15:47:41.187Z,101365.22
2023-02-26T15:50:08.335Z,101361.94
2023-02-26T15:52:34.873Z,101357.03
2023-02-26T15:55:06.340Z,101360.53
2023-02-26T15:57:33.459Z,101370.53
2023-02-26T16:00:16.234Z,101366.94
2023-02-26T16:02:44.177Z,101378.50
2023-02-26T16:05:14.657Z,101380.16
2023-02-26T16:07:41.926Z,101380.16
2023-02-26T16:10:15.597Z,101375.94
2023-02-26T16:12:44.853Z,101374.13
2023-02-26T16:15:15.723Z,101380.75
2023-02-26T16:17:49.137Z,101385.59
2023-02-26T16:20:23.544Z,101380.50
2023-02-26T16:22:55.870Z,101384.97
2023-02-26T16:25:35.235Z,101393.91
2023-02-26T16:28:05.809Z,101394.44
2023-02-26T16:30:37.644Z,101399.53
2023-02-26T16:33:09.421Z,101402.59
2023-02-26T16:36:02.645Z,101407.69
2023-02-26T16:38:33.971Z,101410.97
2023-02-26T16:41:12.003Z,101407.28
2023-02-26T16:43:44.488Z,101415.81
2023-02-26T16:46:18.072Z,101416.81
2023-02-26T16:48:53.898Z,101419.41
2023-02-26T16:51:22.877Z,101422.75
2023-02-26T16:53:55.639Z,101416.38
2023-02-26T16:56:27.314Z,101429.56
2023-02-26T16:59:14.686Z,101429.50
2023-02-26T17:01:55.232Z,101436.19
2023-02-26T17:04:26.656Z,101442.47
2023-02-26T17:06:53.468Z,101449.38
2023-02-26T17:09:26.877Z,101459.47
2023-02-26T17:12:12.537Z,101468.38
2023-02-26T17:14:45.450Z,101458.78
2023-02-26T17:17:12.343Z,101466.28
2023-02-26T17:19:38.961Z,101471.41
2023-02-26T17:22:11.834Z,101478.06
2023-02-26T17:24:40.863Z,101475.72
2023-02-26T17:27:09.874Z,101480.97
2023-02-26T17:29:38.846Z,101481.16
2023-02-26T17:32:07.288Z,101484.44
2023-02-26T17:34:33.806Z,101484.19
2023-02-26T17:37:05.431Z,101483.63
2023-02-26T17:39:32.150Z,101484.25
2023-02-26T17:41:58.636Z,101489.22
2023-02-26T17:44:26.486Z,101494.06
2023-02-26T17:46:53.018Z,101495.78
2023-02-26T17:49:19.439Z,101497.28
2023-02-26T17:51:46.055Z,101505.25
2023-02-26T17:54:12.410Z,101507.81
2023-02-26T17:56:38.884Z,101518.00
2023-02-26T17:59:06.977Z,101525.97
2023-02-26T18:01:33.420Z,101527.16
2023-02-26T18:04:01.016Z,101527.44
2023-02-26T18:06:30.958Z,101536.72
2023-02-26T18:08:57.811Z,101539.81
2023-02-26T18:11:26.121Z,101537.13
2023-02-26T18:13:54.373Z,101542.66
2023-02-26T18:16:34.107Z,101546.16
2023-02-26T18:19:01.317Z,101548.41
2023-02-26T18:21:28.559Z,101554.72
2023-02-26T18:23:57.723Z,101562.94
2023-02-26T18:26:27.511Z,101560.75
2023-02-26T18:29:28.036Z,101558.03
2023-02-26T18:32:03.159Z,101556.63
2023-02-26T18:34:29.712Z,101563.78
2023-02-26T18:36:56.054Z,101569.28
2023-02-26T18:39:25.002Z,101564.63
2023-02-26T18:41:51.396Z,101562.97
2023-02-26T18:44:17.787Z,101564.34
2023-02-26T18:46:44.864Z,101563.00
2023-02-26T18:49:17.717Z,101567.91
2023-02-26T18:51:44.162Z,101572.03
2023-02-26T18:54:10.553Z,101575.03
2023-02-26T18:56:42.954Z,101573.41
2023-02-26T18:59:09.430Z,101578.88
2023-02-26T19:01:36.247Z,101586.56
2023-02-26T19:04:02.747Z,101583.00
2023-02-26T19:06:29.358Z,101585.19
2023-02-26T19:08:55.794Z,101601.91
2023-02-26T19:11:22.199Z,101599.97
2023-02-26T19:13:49.892Z,101600.78
2023-02-26T19:16:16.282Z,101602.44
2023-02-26T19:18:42.753Z,101600.78
2023-02-26T19:21:09.203Z,101609.81
2023-02-26T19:23:35.669Z,101613.38
2023-02-26T19:26:02.092Z,101612.03
2023-02-26T19:28:28.589Z,101612.84
2023-02-26T19:30:55.246Z,101610.66
2023-02-26T19:33:23.798Z,101615.84
2023-02-26T19:35:51.220Z,101618.56
2023-02-26T19:38:17.572Z,101619.13
2023-02-26T19:40:44.311Z,101613.34
2023-02-26T19:43:11.104Z,101619.66
2023-02-26T19:45:37.491Z,101629.25
2023-02-26T19:48:03.965Z,101629.25
2023-02-26T19:50:30.340Z,101633.34
2023-02-26T19:52:58.310Z,101636.91
2023-02-26T19:55:24.739Z,101636.06
2023-02-26T19:57:51.183Z,101641.31
2023-02-26T20:00:17.705Z,101637.47
2023-02-26T20:02:44.368Z,101640.72
2023-02-26T20:05:15.895Z,101642.94
2023-02-26T20:07:44.847Z,101650.56
2023-02-26T20:10:12.626Z,101643.44
2023-02-26T20:12:39.167Z,101640.44
2023-02-26T20:15:08.191Z,101643.41
2023-02-26T20:17:35.006Z,101645.56
2023-02-26T20:20:01.568Z,101644.16
2023-02-26T20:22:28.009Z,101651.06
2023-02-26T20:24:54.833Z,101641.06
2023-02-26T20:27:21.353Z,101660.75
2023-02-26T20:29:47.921Z,101658.25
2023-02-26T20:32:14.709Z,101651.47
2023-02-26T20:34:41.341Z,101663.88
2023-02-26T20:37:07.845Z,101665.78
2023-02-26T20:39:34.389Z,101663.13
2023-02-26T20:42:01.112Z,101665.81
2023-02-26T20:44:27.540Z,101662.69
2023-02-26T20:46:54.856Z,101675.00
2023-02-26T20:49:21.451Z,101670.88
2023-02-26T20:51:50.355Z,101671.94
2023-02-26T20:54:17.759Z,101665.56
2023-02-26T20:56:45.208Z,101673.47
2023-02-26T20:59:11.726Z,101669.59
2023-02-26T21:01:38.157Z,101672.81
2023-02-26T21:04:07.480Z,101672.72
2023-02-26T21:06:35.073Z,101671.75
2023-02-26T21:09:04.067Z,101681.78
2023-02-26T21:11:33.148Z,101671.53
2023-02-26T21:14:02.142Z,101683.91
2023-02-26T21:16:29.294Z,101683.63
2023-02-26T21:18:56.798Z,101680.75
2023-02-26T21:21:23.375Z,101675.75
2023-02-26T21:23:51.246Z,101683.44
2023-02-26T21:26:17.695Z,101682.91
2023-02-26T21:28:48.465Z,101686.22
2023-02-26T21:31:16.368Z,101680.69
2023-02-26T21:33:42.818Z,101679.25
2023-02-26T21:36:10.322Z,101683.22
2023-02-26T21:38:37.629Z,101678.72
2023-02-26T21:41:04.409Z,101683.41
2023-02-26T21:43:30.873Z,101680.44
2023-02-26T21:45:57.346Z,101679.00
2023-02-26T21:48:24.247Z,101683.03
2023-02-26T21:50:52.023Z,101683.94
2023-02-26T21:53:18.472Z,101690.44
2023-02-26T21:55:44.926Z,101682.00
2023-02-26T21:58:11.407Z,101682.97
2023-02-26T22:00:38.031Z,101688.66
2023-02-26T22:03:05.174Z,101687.84
2023-02-26T22:05:31.557Z,101686.06
2023-02-26T22:07:58.046Z,101680.31
2023-02-26T22:10:24.534Z,101697.56
2023-02-26T22:12:51.037Z,101693.34
2023-02-26T22:15:17.560Z,101695.81
2023-02-26T22:17:44.503Z,101690.66
2023-02-26T22:20:11.505Z,101693.31
2023-02-26T22:22:38.091Z,101694.19
2023-02-26T22:25:07.098Z,101696.81
2023-02-26T22:27:33.925Z,101691.41
2023-02-26T22:30:00.335Z,101689.03
2023-02-26T22:32:26.812Z,101686.06
2023-02-26T22:34:55.497Z,101687.47
2023-02-26T22:37:22.133Z,101688.75
2023-02-26T22:39:48.746Z,101691.69
2023-02-26T22:42:15.218Z,101687.53
2023-02-26T22:44:41.712Z,101694.28
2023-02-26T22:47:08.816Z,101697.97
2023-02-26T22:49:35.301Z,101704.13
2023-02-26T22:52:02.221Z,101696.34
2023-02-26T22:54:28.773Z,101707.97
2023-02-26T22:56:55.376Z,101707.44
2023-02-26T22:59:22.514Z,101706.25
2023-02-26T23:01:49.073Z,101707.91
2023-02-26T23:04:15.482Z,101707.16
2023-02-26T23:06:41.982Z,101704.19
2023-02-26T23:09:08.363Z,101705.56
2023-02-26T23:11:34.894Z,101714.03
2023-02-26T23:14:01.454Z,101709.06
2023-02-26T23:16:27.918Z,101700.13
2023-02-26T23:18:54.809Z,101710.56
2023-02-26T23:21:21.314Z,101707.16
2023-02-26T23:23:47.873Z,101709.81
2023-02-26T23:26:14.377Z,101708.69
2023-02-26T23:28:40.788Z,101706.97
2023-02-26T23:31:07.503Z,101709.78
2023-02-26T23:33:33.971Z,101713.31
2023-02-26T23:36:00.579Z,101698.09
2023-02-26T23:38:27.387Z,101698.59
2023-02-26T23:40:53.863Z,101702.66
2023-02-26T23:43:20.339Z,101702.50
2023-02-26T23:45:46.734Z,101704.88
2023-02-26T23:48:13.142Z,101704.56
2023-02-26T23:50:40.344Z,101704.13
2023-02-26T23:53:07.376Z,101705.59
2023-02-26T23:55:33.939Z,101705.09
2023-02-26T23:58:01.077Z,101709.41
